Little Blue, Nebraska
Current Conditions -  °F | °C
As of 12:53 PM on Sunday 23 Nov 2014 (Local Time) from KHSI Reporting Station
Overcast Overcast  
Wind Chill: 34°   Ceiling: 8000
Heat Index: 43°   Visibility: 10mi
Dew Point: 34°   Wind: 24mph
Humidity: 71%   Direction: 350°N
Pressure: 29.56"   Gusts: 31mph
Location:  40.4809°N, 98.2217°W
Report Text: KHSI 231853Z AUTO 35021G27KT 10SM BKN080 OVC095 06/01 A2956 RMK AO2 PK WND 35029/1838 RAE1759 SLP009 P0000 T00610011
Loading
Personal Weather Stations






























Interactive Weather Map New forecast layout! Learn more

10-Day Weather Forecast

Advertisements
Track Severe Weather on mobile